sensor_id;sensor_type;location;lat;lon;timestamp;temperature;humidity
14053;DHT22;7101;51.600;7.310;2023-04-24T00:01:25;11.00;99.90
14053;DHT22;7101;51.600;7.310;2023-04-24T00:03:52;11.00;99.90
14053;DHT22;7101;51.600;7.310;2023-04-24T00:06:19;10.90;99.90
14053;DHT22;7101;51.600;7.310;2023-04-24T00:08:46;10.90;99.90
14053;DHT22;7101;51.600;7.310;2023-04-24T00:11:12;10.90;99.90
14053;DHT22;7101;51.600;7.310;2023-04-24T00:13:39;10.90;99.90
14053;DHT22;7101;51.600;7.310;2023-04-24T00:16:07;10.90;99.90
14053;DHT22;7101;51.600;7.310;2023-04-24T00:18:34;10.90;99.90
14053;DHT22;7101;51.600;7.310;2023-04-24T00:21:01;10.90;99.90
14053;DHT22;7101;51.600;7.310;2023-04-24T00:23:28;10.90;99.90
14053;DHT22;7101;51.600;7.310;2023-04-24T00:25:55;10.90;99.90
14053;DHT22;7101;51.600;7.310;2023-04-24T00:28:22;11.00;99.90
14053;DHT22;7101;51.600;7.310;2023-04-24T00:30:49;11.10;99.90
14053;DHT22;7101;51.600;7.310;2023-04-24T00:33:18;11.10;99.90
14053;DHT22;7101;51.600;7.310;2023-04-24T00:35:45;11.10;99.90
14053;DHT22;7101;51.600;7.310;2023-04-24T00:38:12;11.00;99.90
14053;DHT22;7101;51.600;7.310;2023-04-24T00:40:39;10.90;99.90
14053;DHT22;7101;51.600;7.310;2023-04-24T00:43:06;10.90;99.90
14053;DHT22;7101;51.600;7.310;2023-04-24T00:45:35;10.90;99.90
14053;DHT22;7101;51.600;7.310;2023-04-24T00:48:02;11.00;99.90
14053;DHT22;7101;51.600;7.310;2023-04-24T00:50:30;11.00;99.90
14053;DHT22;7101;51.600;7.310;2023-04-24T00:52:57;11.00;99.90
14053;DHT22;7101;51.600;7.310;2023-04-24T00:55:24;10.90;99.90
14053;DHT22;7101;51.600;7.310;2023-04-24T00:57:58;10.80;99.90
14053;DHT22;7101;51.600;7.310;2023-04-24T01:00:25;10.80;99.90
14053;DHT22;7101;51.600;7.310;2023-04-24T01:02:52;10.70;99.90
14053;DHT22;7101;51.600;7.310;2023-04-24T01:05:19;10.80;99.90
14053;DHT22;7101;51.600;7.310;2023-04-24T01:07:48;10.70;99.90
14053;DHT22;7101;51.600;7.310;2023-04-24T01:10:15;10.70;99.90
14053;DHT22;7101;51.600;7.310;2023-04-24T01:12:43;10.60;99.90
14053;DHT22;7101;51.600;7.310;2023-04-24T01:15:10;10.50;99.90
14053;DHT22;7101;51.600;7.310;2023-04-24T01:17:37;10.30;99.90
14053;DHT22;7101;51.600;7.310;2023-04-24T01:20:05;10.30;99.90
14053;DHT22;7101;51.600;7.310;2023-04-24T01:22:34;10.30;99.90
14053;DHT22;7101;51.600;7.310;2023-04-24T01:25:07;10.20;99.90
14053;DHT22;7101;51.600;7.310;2023-04-24T01:27:36;10.20;99.90
14053;DHT22;7101;51.600;7.310;2023-04-24T01:30:05;10.10;99.90
14053;DHT22;7101;51.600;7.310;2023-04-24T01:32:32;10.10;99.90
14053;DHT22;7101;51.600;7.310;2023-04-24T01:34:59;10.10;99.90
14053;DHT22;7101;51.600;7.310;2023-04-24T01:37:26;10.20;99.90
14053;DHT22;7101;51.600;7.310;2023-04-24T01:39:56;10.20;99.90
14053;DHT22;7101;51.600;7.310;2023-04-24T01:42:23;10.10;99.90
14053;DHT22;7101;51.600;7.310;2023-04-24T01:44:50;10.10;99.90
14053;DHT22;7101;51.600;7.310;2023-04-24T01:47:17;10.10;99.90
14053;DHT22;7101;51.600;7.310;2023-04-24T01:49:45;10.00;99.90
14053;DHT22;7101;51.600;7.310;2023-04-24T01:52:15;10.00;99.90
14053;DHT22;7101;51.600;7.310;2023-04-24T01:54:44;10.10;99.90
14053;DHT22;7101;51.600;7.310;2023-04-24T01:57:12;10.00;99.90
14053;DHT22;7101;51.600;7.310;2023-04-24T01:59:39;10.00;99.90
14053;DHT22;7101;51.600;7.310;2023-04-24T02:02:06;10.00;99.90
14053;DHT22;7101;51.600;7.310;2023-04-24T02:04:35;10.00;99.90
14053;DHT22;7101;51.600;7.310;2023-04-24T02:07:02;10.00;99.90
14053;DHT22;7101;51.600;7.310;2023-04-24T02:09:31;10.00;99.90
14053;DHT22;7101;51.600;7.310;2023-04-24T02:11:58;9.90;99.90
14053;DHT22;7101;51.600;7.310;2023-04-24T02:14:26;9.90;99.90
14053;DHT22;7101;51.600;7.310;2023-04-24T02:16:59;9.90;99.90
14053;DHT22;7101;51.600;7.310;2023-04-24T02:19:26;9.70;99.90
14053;DHT22;7101;51.600;7.310;2023-04-24T02:21:54;9.60;99.90
14053;DHT22;7101;51.600;7.310;2023-04-24T02:24:20;9.50;99.90
14053;DHT22;7101;51.600;7.310;2023-04-24T02:26:48;9.50;99.90
14053;DHT22;7101;51.600;7.310;2023-04-24T02:29:15;9.30;99.90
14053;DHT22;7101;51.600;7.310;2023-04-24T02:31:45;9.30;99.90
14053;DHT22;7101;51.600;7.310;2023-04-24T02:34:12;9.20;99.90
14053;DHT22;7101;51.600;7.310;2023-04-24T02:36:40;9.20;99.90
14053;DHT22;7101;51.600;7.310;2023-04-24T02:39:06;9.20;99.90
14053;DHT22;7101;51.600;7.310;2023-04-24T02:41:35;9.30;99.90
14053;DHT22;7101;51.600;7.310;2023-04-24T02:44:04;9.40;99.90
14053;DHT22;7101;51.600;7.310;2023-04-24T02:46:31;9.50;99.90
14053;DHT22;7101;51.600;7.310;2023-04-24T02:49:00;9.40;99.90
14053;DHT22;7101;51.600;7.310;2023-04-24T02:51:28;9.40;99.90
14053;DHT22;7101;51.600;7.310;2023-04-24T02:53:56;9.40;99.90
14053;DHT22;7101;51.600;7.310;2023-04-24T02:56:23;9.40;99.90
14053;DHT22;7101;51.600;7.310;2023-04-24T02:58:49;9.40;99.90
14053;DHT22;7101;51.600;7.310;2023-04-24T03:01:17;9.30;99.90
14053;DHT22;7101;51.600;7.310;2023-04-24T03:03:44;9.30;99.90
14053;DHT22;7101;51.600;7.310;2023-04-24T03:06:12;9.30;99.90
14053;DHT22;7101;51.600;7.310;2023-04-24T03:08:39;9.40;99.90
14053;DHT22;7101;51.600;7.310;2023-04-24T03:11:07;9.50;99.90
14053;DHT22;7101;51.600;7.310;2023-04-24T03:13:33;9.40;99.90
14053;DHT22;7101;51.600;7.310;2023-04-24T03:16:03;9.50;99.90
14053;DHT22;7101;51.600;7.310;2023-04-24T03:18:30;9.60;99.90
14053;DHT22;7101;51.600;7.310;2023-04-24T03:20:58;9.50;99.90
14053;DHT22;7101;51.600;7.310;2023-04-24T03:23:26;9.60;99.90
14053;DHT22;7101;51.600;7.310;2023-04-24T03:25:54;9.60;99.90
14053;DHT22;7101;51.600;7.310;2023-04-24T03:28:21;9.60;99.90
14053;DHT22;7101;51.600;7.310;2023-04-24T03:30:48;9.60;99.90
14053;DHT22;7101;51.600;7.310;2023-04-24T03:33:15;9.70;99.90
14053;DHT22;7101;51.600;7.310;2023-04-24T03:35:42;9.70;99.90
14053;DHT22;7101;51.600;7.310;2023-04-24T03:38:09;9.70;99.90
14053;DHT22;7101;51.600;7.310;2023-04-24T03:40:38;9.60;99.90
14053;DHT22;7101;51.600;7.310;2023-04-24T03:43:06;9.70;99.90
14053;DHT22;7101;51.600;7.310;2023-04-24T03:45:32;9.70;99.90
14053;DHT22;7101;51.600;7.310;2023-04-24T03:47:59;9.70;99.90
14053;DHT22;7101;51.600;7.310;2023-04-24T03:50:28;9.80;99.90
14053;DHT22;7101;51.600;7.310;2023-04-24T03:52:55;9.80;99.90
14053;DHT22;7101;51.600;7.310;2023-04-24T03:55:21;9.80;99.90
14053;DHT22;7101;51.600;7.310;2023-04-24T03:57:50;9.90;99.90
14053;DHT22;7101;51.600;7.310;2023-04-24T04:00:16;9.90;99.90
14053;DHT22;7101;51.600;7.310;2023-04-24T04:02:46;9.90;99.90
14053;DHT22;7101;51.600;7.310;2023-04-24T04:05:15;9.90;99.90
14053;DHT22;7101;51.600;7.310;2023-04-24T04:07:41;9.90;99.90
14053;DHT22;7101;51.600;7.310;2023-04-24T04:10:09;9.80;99.90
14053;DHT22;7101;51.600;7.310;2023-04-24T04:12:35;9.80;99.90
14053;DHT22;7101;51.600;7.310;2023-04-24T04:15:04;9.80;99.90
14053;DHT22;7101;51.600;7.310;2023-04-24T04:17:32;9.80;99.90
14053;DHT22;7101;51.600;7.310;2023-04-24T04:19:59;9.90;99.90
14053;DHT22;7101;51.600;7.310;2023-04-24T04:22:28;9.90;99.90
14053;DHT22;7101;51.600;7.310;2023-04-24T04:24:55;9.90;99.90
14053;DHT22;7101;51.600;7.310;2023-04-24T04:27:22;9.80;99.90
14053;DHT22;7101;51.600;7.310;2023-04-24T04:29:50;9.80;99.90
14053;DHT22;7101;51.600;7.310;2023-04-24T04:32:18;9.80;99.90
14053;DHT22;7101;51.600;7.310;2023-04-24T04:34:46;9.80;99.90
14053;DHT22;7101;51.600;7.310;2023-04-24T04:37:15;9.80;99.90
14053;DHT22;7101;51.600;7.310;2023-04-24T04:39:42;9.80;99.90
14053;DHT22;7101;51.600;7.310;2023-04-24T04:42:10;9.80;99.90
14053;DHT22;7101;51.600;7.310;2023-04-24T04:44:37;9.80;99.90
14053;DHT22;7101;51.600;7.310;2023-04-24T04:47:04;9.80;99.90
14053;DHT22;7101;51.600;7.310;2023-04-24T04:49:39;9.80;99.90
14053;DHT22;7101;51.600;7.310;2023-04-24T04:52:07;9.70;99.90
14053;DHT22;7101;51.600;7.310;2023-04-24T04:54:37;9.80;99.90
14053;DHT22;7101;51.600;7.310;2023-04-24T04:57:03;9.90;99.90
14053;DHT22;7101;51.600;7.310;2023-04-24T04:59:31;9.90;99.90
14053;DHT22;7101;51.600;7.310;2023-04-24T05:01:58;9.80;99.90
14053;DHT22;7101;51.600;7.310;2023-04-24T05:04:25;9.80;99.90
14053;DHT22;7101;51.600;7.310;2023-04-24T05:06:53;9.80;99.90
14053;DHT22;7101;51.600;7.310;2023-04-24T05:09:21;9.90;99.90
14053;DHT22;7101;51.600;7.310;2023-04-24T05:11:48;9.80;99.90
14053;DHT22;7101;51.600;7.310;2023-04-24T05:14:16;9.90;99.90
14053;DHT22;7101;51.600;7.310;2023-04-24T05:16:43;9.90;99.90
14053;DHT22;7101;51.600;7.310;2023-04-24T05:19:11;9.90;99.90
14053;DHT22;7101;51.600;7.310;2023-04-24T05:21:39;10.00;99.90
14053;DHT22;7101;51.600;7.310;2023-04-24T05:24:08;10.10;99.90
14053;DHT22;7101;51.600;7.310;2023-04-24T05:26:34;10.00;99.90
14053;DHT22;7101;51.600;7.310;2023-04-24T05:29:02;9.90;99.90
14053;DHT22;7101;51.600;7.310;2023-04-24T05:31:29;9.90;99.90
14053;DHT22;7101;51.600;7.310;2023-04-24T05:33:56;10.00;99.90
14053;DHT22;7101;51.600;7.310;2023-04-24T05:36:24;10.10;99.90
14053;DHT22;7101;51.600;7.310;2023-04-24T05:38:55;10.20;99.90
14053;DHT22;7101;51.600;7.310;2023-04-24T05:41:25;10.10;99.90
14053;DHT22;7101;51.600;7.310;2023-04-24T05:43:52;10.10;99.90
14053;DHT22;7101;51.600;7.310;2023-04-24T05:46:20;10.10;99.90
14053;DHT22;7101;51.600;7.310;2023-04-24T05:48:47;10.10;99.90
14053;DHT22;7101;51.600;7.310;2023-04-24T05:51:14;10.00;99.90
14053;DHT22;7101;51.600;7.310;2023-04-24T05:53:41;10.00;99.90
14053;DHT22;7101;51.600;7.310;2023-04-24T05:56:08;9.90;99.90
14053;DHT22;7101;51.600;7.310;2023-04-24T05:58:44;9.90;99.90
14053;DHT22;7101;51.600;7.310;2023-04-24T06:01:11;10.00;99.90
14053;DHT22;7101;51.600;7.310;2023-04-24T06:03:39;9.90;99.90
14053;DHT22;7101;51.600;7.310;2023-04-24T06:06:09;10.00;99.90
14053;DHT22;7101;51.600;7.310;2023-04-24T06:08:36;9.90;99.90
14053;DHT22;7101;51.600;7.310;2023-04-24T06:11:04;9.70;99.90
14053;DHT22;7101;51.600;7.310;2023-04-24T06:13:31;9.50;99.90
14053;DHT22;7101;51.600;7.310;2023-04-24T06:16:00;9.40;99.90
14053;DHT22;7101;51.600;7.310;2023-04-24T06:18:27;9.40;99.90
14053;DHT22;7101;51.600;7.310;2023-04-24T06:21:00;9.50;99.90
14053;DHT22;7101;51.600;7.310;2023-04-24T06:23:28;9.50;99.90
14053;DHT22;7101;51.600;7.310;2023-04-24T06:25:57;9.40;99.90
14053;DHT22;7101;51.600;7.310;2023-04-24T06:28:26;9.40;99.90
14053;DHT22;7101;51.600;7.310;2023-04-24T06:30:53;9.40;99.90
14053;DHT22;7101;51.600;7.310;2023-04-24T06:33:22;9.40;99.90
14053;DHT22;7101;51.600;7.310;2023-04-24T06:35:49;9.40;99.90
14053;DHT22;7101;51.600;7.310;2023-04-24T06:38:16;9.40;99.90
14053;DHT22;7101;51.600;7.310;2023-04-24T06:40:44;9.50;99.90
14053;DHT22;7101;51.600;7.310;2023-04-24T06:43:11;9.50;99.90
14053;DHT22;7101;51.600;7.310;2023-04-24T06:45:38;9.60;99.90
14053;DHT22;7101;51.600;7.310;2023-04-24T06:48:08;9.70;99.90
14053;DHT22;7101;51.600;7.310;2023-04-24T06:50:37;9.80;99.90
14053;DHT22;7101;51.600;7.310;2023-04-24T06:53:05;9.80;99.90
14053;DHT22;7101;51.600;7.310;2023-04-24T06:55:32;9.70;99.90
14053;DHT22;7101;51.600;7.310;2023-04-24T06:57:58;9.90;99.90
14053;DHT22;7101;51.600;7.310;2023-04-24T07:00:25;10.00;99.90
14053;DHT22;7101;51.600;7.310;2023-04-24T07:02:52;9.90;99.90
14053;DHT22;7101;51.600;7.310;2023-04-24T07:05:19;10.10;99.90
14053;DHT22;7101;51.600;7.310;2023-04-24T07:07:48;10.10;99.90
14053;DHT22;7101;51.600;7.310;2023-04-24T07:10:16;10.10;99.90
14053;DHT22;7101;51.600;7.310;2023-04-24T07:12:44;9.80;99.90
14053;DHT22;7101;51.600;7.310;2023-04-24T07:15:11;9.80;99.90
14053;DHT22;7101;51.600;7.310;2023-04-24T07:17:38;9.80;99.90
14053;DHT22;7101;51.600;7.310;2023-04-24T07:20:11;9.90;99.90
14053;DHT22;7101;51.600;7.310;2023-04-24T07:22:41;9.90;99.90
14053;DHT22;7101;51.600;7.310;2023-04-24T07:25:15;9.90;99.90
14053;DHT22;7101;51.600;7.310;2023-04-24T07:27:42;9.90;99.90
14053;DHT22;7101;51.600;7.310;2023-04-24T07:30:15;10.20;99.90
14053;DHT22;7101;51.600;7.310;2023-04-24T07:32:42;10.10;99.90
14053;DHT22;7101;51.600;7.310;2023-04-24T07:35:09;10.10;99.90
14053;DHT22;7101;51.600;7.310;2023-04-24T07:37:36;10.10;99.90
14053;DHT22;7101;51.600;7.310;2023-04-24T07:40:03;10.10;99.90
14053;DHT22;7101;51.600;7.310;2023-04-24T07:42:32;10.10;99.90
14053;DHT22;7101;51.600;7.310;2023-04-24T07:45:06;10.10;99.90
14053;DHT22;7101;51.600;7.310;2023-04-24T07:47:34;9.80;99.90
14053;DHT22;7101;51.600;7.310;2023-04-24T07:50:04;9.90;99.90
14053;DHT22;7101;51.600;7.310;2023-04-24T07:52:33;10.10;99.90
14053;DHT22;7101;51.600;7.310;2023-04-24T07:55:05;10.20;99.90
14053;DHT22;7101;51.600;7.310;2023-04-24T07:57:33;10.40;99.90
14053;DHT22;7101;51.600;7.310;2023-04-24T08:00:02;10.40;99.90
14053;DHT22;7101;51.600;7.310;2023-04-24T08:02:29;10.30;99.90
14053;DHT22;7101;51.600;7.310;2023-04-24T08:04:56;10.00;99.90
14053;DHT22;7101;51.600;7.310;2023-04-24T08:07:23;9.90;99.90
14053;DHT22;7101;51.600;7.310;2023-04-24T08:09:58;9.80;99.90
14053;DHT22;7101;51.600;7.310;2023-04-24T08:12:25;9.80;99.90
14053;DHT22;7101;51.600;7.310;2023-04-24T08:14:55;9.90;99.90
14053;DHT22;7101;51.600;7.310;2023-04-24T08:17:24;10.10;99.90
14053;DHT22;7101;51.600;7.310;2023-04-24T08:19:51;10.20;99.90
14053;DHT22;7101;51.600;7.310;2023-04-24T08:22:25;10.50;99.90
14053;DHT22;7101;51.600;7.310;2023-04-24T08:24:53;10.70;99.90
14053;DHT22;7101;51.600;7.310;2023-04-24T08:27:20;10.90;99.90
14053;DHT22;7101;51.600;7.310;2023-04-24T08:29:47;11.00;99.90
14053;DHT22;7101;51.600;7.310;2023-04-24T08:32:22;10.80;99.90
14053;DHT22;7101;51.600;7.310;2023-04-24T08:34:49;10.50;99.90
14053;DHT22;7101;51.600;7.310;2023-04-24T08:37:20;10.30;99.90
14053;DHT22;7101;51.600;7.310;2023-04-24T08:39:47;10.20;99.90
14053;DHT22;7101;51.600;7.310;2023-04-24T08:42:14;10.10;99.90
14053;DHT22;7101;51.600;7.310;2023-04-24T08:44:42;9.80;99.90
14053;DHT22;7101;51.600;7.310;2023-04-24T08:47:10;9.50;99.90
14053;DHT22;7101;51.600;7.310;2023-04-24T08:49:39;9.50;99.90
14053;DHT22;7101;51.600;7.310;2023-04-24T08:52:06;9.40;99.90
14053;DHT22;7101;51.600;7.310;2023-04-24T08:54:34;9.40;99.90
14053;DHT22;7101;51.600;7.310;2023-04-24T08:57:02;9.40;99.90
14053;DHT22;7101;51.600;7.310;2023-04-24T08:59:31;9.40;99.90
14053;DHT22;7101;51.600;7.310;2023-04-24T09:02:03;9.50;99.90
14053;DHT22;7101;51.600;7.310;2023-04-24T09:04:32;9.60;99.90
14053;DHT22;7101;51.600;7.310;2023-04-24T09:07:02;9.40;99.90
14053;DHT22;7101;51.600;7.310;2023-04-24T09:09:32;9.30;99.90
14053;DHT22;7101;51.600;7.310;2023-04-24T09:12:00;9.30;99.90
14053;DHT22;7101;51.600;7.310;2023-04-24T09:14:29;9.20;99.90
14053;DHT22;7101;51.600;7.310;2023-04-24T09:16:57;9.30;99.90
14053;DHT22;7101;51.600;7.310;2023-04-24T09:19:24;9.20;99.90
14053;DHT22;7101;51.600;7.310;2023-04-24T09:21:52;9.10;99.90
14053;DHT22;7101;51.600;7.310;2023-04-24T09:24:27;9.20;99.90
14053;DHT22;7101;51.600;7.310;2023-04-24T09:26:56;9.30;99.90
14053;DHT22;7101;51.600;7.310;2023-04-24T09:29:24;9.30;99.90
14053;DHT22;7101;51.600;7.310;2023-04-24T09:31:51;9.40;99.90
14053;DHT22;7101;51.600;7.310;2023-04-24T09:34:21;9.50;99.90
14053;DHT22;7101;51.600;7.310;2023-04-24T09:36:49;9.50;99.90
14053;DHT22;7101;51.600;7.310;2023-04-24T09:39:17;9.60;99.90
14053;DHT22;7101;51.600;7.310;2023-04-24T09:41:48;9.60;99.90
14053;DHT22;7101;51.600;7.310;2023-04-24T09:44:16;9.70;99.90
14053;DHT22;7101;51.600;7.310;2023-04-24T09:46:46;9.60;99.90
14053;DHT22;7101;51.600;7.310;2023-04-24T09:49:16;9.80;99.90
14053;DHT22;7101;51.600;7.310;2023-04-24T09:51:48;9.60;99.90
14053;DHT22;7101;51.600;7.310;2023-04-24T09:54:16;9.70;99.90
14053;DHT22;7101;51.600;7.310;2023-04-24T09:56:44;9.60;99.90
14053;DHT22;7101;51.600;7.310;2023-04-24T09:59:14;9.50;99.90
14053;DHT22;7101;51.600;7.310;2023-04-24T10:01:41;9.40;99.90
14053;DHT22;7101;51.600;7.310;2023-04-24T10:04:17;9.30;99.90
14053;DHT22;7101;51.600;7.310;2023-04-24T10:06:45;9.40;99.90
14053;DHT22;7101;51.600;7.310;2023-04-24T10:09:13;9.50;99.90
14053;DHT22;7101;51.600;7.310;2023-04-24T10:11:42;9.30;99.90
14053;DHT22;7101;51.600;7.310;2023-04-24T10:14:14;9.30;99.90
14053;DHT22;7101;51.600;7.310;2023-04-24T10:16:42;9.10;99.90
14053;DHT22;7101;51.600;7.310;2023-04-24T10:19:09;9.20;99.90
14053;DHT22;7101;51.600;7.310;2023-04-24T10:21:36;9.10;99.90
14053;DHT22;7101;51.600;7.310;2023-04-24T10:24:08;9.10;99.90
14053;DHT22;7101;51.600;7.310;2023-04-24T10:26:35;9.00;99.90
14053;DHT22;7101;51.600;7.310;2023-04-24T10:29:05;9.00;99.90
14053;DHT22;7101;51.600;7.310;2023-04-24T10:31:37;9.00;99.90
14053;DHT22;7101;51.600;7.310;2023-04-24T10:34:04;9.10;99.90
14053;DHT22;7101;51.600;7.310;2023-04-24T10:36:34;9.10;99.90
14053;DHT22;7101;51.600;7.310;2023-04-24T10:39:03;9.00;99.90
14053;DHT22;7101;51.600;7.310;2023-04-24T10:41:33;9.10;99.90
14053;DHT22;7101;51.600;7.310;2023-04-24T10:44:06;9.00;99.90
14053;DHT22;7101;51.600;7.310;2023-04-24T10:46:36;9.10;99.90
14053;DHT22;7101;51.600;7.310;2023-04-24T10:49:04;9.10;99.90
14053;DHT22;7101;51.600;7.310;2023-04-24T10:51:46;9.20;99.90
14053;DHT22;7101;51.600;7.310;2023-04-24T10:54:27;9.20;99.90
14053;DHT22;7101;51.600;7.310;2023-04-24T10:57:26;9.20;99.90
14053;DHT22;7101;51.600;7.310;2023-04-24T11:00:16;9.30;99.90
14053;DHT22;7101;51.600;7.310;2023-04-24T11:02:47;9.20;99.90
14053;DHT22;7101;51.600;7.310;2023-04-24T11:05:19;9.10;99.90
14053;DHT22;7101;51.600;7.310;2023-04-24T11:08:12;8.90;99.90
14053;DHT22;7101;51.600;7.310;2023-04-24T11:10:44;8.90;99.90
14053;DHT22;7101;51.600;7.310;2023-04-24T11:13:14;8.80;99.90
14053;DHT22;7101;51.600;7.310;2023-04-24T11:15:42;8.80;99.90
14053;DHT22;7101;51.600;7.310;2023-04-24T11:18:14;8.80;99.90
14053;DHT22;7101;51.600;7.310;2023-04-24T11:20:42;8.90;99.90
14053;DHT22;7101;51.600;7.310;2023-04-24T11:23:12;8.90;99.90
14053;DHT22;7101;51.600;7.310;2023-04-24T11:25:39;9.00;99.90
14053;DHT22;7101;51.600;7.310;2023-04-24T11:28:07;9.00;99.90
14053;DHT22;7101;51.600;7.310;2023-04-24T11:30:41;8.90;99.90
14053;DHT22;7101;51.600;7.310;2023-04-24T11:33:09;9.00;99.90
14053;DHT22;7101;51.600;7.310;2023-04-24T11:35:40;9.10;99.90
14053;DHT22;7101;51.600;7.310;2023-04-24T11:38:07;9.10;99.90
14053;DHT22;7101;51.600;7.310;2023-04-24T11:40:34;9.20;99.90
14053;DHT22;7101;51.600;7.310;2023-04-24T11:43:01;9.20;99.90
14053;DHT22;7101;51.600;7.310;2023-04-24T11:45:29;9.30;99.90
14053;DHT22;7101;51.600;7.310;2023-04-24T11:48:02;9.20;99.90
14053;DHT22;7101;51.600;7.310;2023-04-24T11:50:29;9.30;99.90
14053;DHT22;7101;51.600;7.310;2023-04-24T11:53:00;9.50;99.90
14053;DHT22;7101;51.600;7.310;2023-04-24T11:55:28;9.70;99.90
14053;DHT22;7101;51.600;7.310;2023-04-24T11:57:57;10.00;99.90
14053;DHT22;7101;51.600;7.310;2023-04-24T12:00:27;10.30;99.90
14053;DHT22;7101;51.600;7.310;2023-04-24T12:03:04;10.40;99.90
14053;DHT22;7101;51.600;7.310;2023-04-24T12:05:31;10.30;99.90
14053;DHT22;7101;51.600;7.310;2023-04-24T12:08:00;10.20;99.90
14053;DHT22;7101;51.600;7.310;2023-04-24T12:10:28;10.10;99.90
14053;DHT22;7101;51.600;7.310;2023-04-24T12:12:57;10.00;99.90
14053;DHT22;7101;51.600;7.310;2023-04-24T12:15:27;10.00;99.90
14053;DHT22;7101;51.600;7.310;2023-04-24T12:17:56;10.00;99.90
14053;DHT22;7101;51.600;7.310;2023-04-24T12:20:28;10.30;99.90
14053;DHT22;7101;51.600;7.310;2023-04-24T12:22:57;10.70;99.90
14053;DHT22;7101;51.600;7.310;2023-04-24T12:25:27;11.20;99.90
14053;DHT22;7101;51.600;7.310;2023-04-24T12:27:55;11.50;99.90
14053;DHT22;7101;51.600;7.310;2023-04-24T12:30:27;11.40;99.90
14053;DHT22;7101;51.600;7.310;2023-04-24T12:32:58;11.90;99.90
14053;DHT22;7101;51.600;7.310;2023-04-24T12:35:27;12.10;99.90
14053;DHT22;7101;51.600;7.310;2023-04-24T12:37:54;11.70;99.90
14053;DHT22;7101;51.600;7.310;2023-04-24T12:40:26;11.60;99.90
14053;DHT22;7101;51.600;7.310;2023-04-24T12:42:54;11.60;99.90
14053;DHT22;7101;51.600;7.310;2023-04-24T12:45:21;11.50;99.90
14053;DHT22;7101;51.600;7.310;2023-04-24T12:47:51;11.30;99.90
14053;DHT22;7101;51.600;7.310;2023-04-24T12:50:20;11.20;99.90
14053;DHT22;7101;51.600;7.310;2023-04-24T12:52:47;11.20;99.90
14053;DHT22;7101;51.600;7.310;2023-04-24T12:55:15;11.20;99.90
14053;DHT22;7101;51.600;7.310;2023-04-24T12:57:43;11.30;99.90
14053;DHT22;7101;51.600;7.310;2023-04-24T13:00:11;11.50;99.90
14053;DHT22;7101;51.600;7.310;2023-04-24T13:02:38;11.30;99.90
14053;DHT22;7101;51.600;7.310;2023-04-24T13:05:05;11.10;99.90
14053;DHT22;7101;51.600;7.310;2023-04-24T13:07:32;11.00;99.90
14053;DHT22;7101;51.600;7.310;2023-04-24T13:10:02;11.10;99.90
14053;DHT22;7101;51.600;7.310;2023-04-24T13:12:29;11.20;99.90
14053;DHT22;7101;51.600;7.310;2023-04-24T13:14:58;11.10;99.90
14053;DHT22;7101;51.600;7.310;2023-04-24T13:17:25;11.10;99.90
14053;DHT22;7101;51.600;7.310;2023-04-24T13:19:54;11.00;99.90
14053;DHT22;7101;51.600;7.310;2023-04-24T13:22:21;10.80;99.90
14053;DHT22;7101;51.600;7.310;2023-04-24T13:24:48;10.70;99.90
14053;DHT22;7101;51.600;7.310;2023-04-24T13:27:15;10.80;99.90
14053;DHT22;7101;51.600;7.310;2023-04-24T13:29:42;10.90;99.90
14053;DHT22;7101;51.600;7.310;2023-04-24T13:32:10;10.90;99.90
14053;DHT22;7101;51.600;7.310;2023-04-24T13:34:39;10.70;99.90
14053;DHT22;7101;51.600;7.310;2023-04-24T13:37:09;10.50;99.90
14053;DHT22;7101;51.600;7.310;2023-04-24T13:39:36;10.40;99.90
14053;DHT22;7101;51.600;7.310;2023-04-24T13:42:03;10.20;99.90
14053;DHT22;7101;51.600;7.310;2023-04-24T13:44:30;10.20;99.90
14053;DHT22;7101;51.600;7.310;2023-04-24T13:46:57;10.20;99.90
14053;DHT22;7101;51.600;7.310;2023-04-24T13:49:26;10.20;99.90
14053;DHT22;7101;51.600;7.310;2023-04-24T13:51:54;10.30;99.90
14053;DHT22;7101;51.600;7.310;2023-04-24T13:54:22;10.40;99.90
14053;DHT22;7101;51.600;7.310;2023-04-24T13:56:51;10.50;99.90
14053;DHT22;7101;51.600;7.310;2023-04-24T13:59:19;10.70;99.90
14053;DHT22;7101;51.600;7.310;2023-04-24T14:01:46;10.90;99.90
14053;DHT22;7101;51.600;7.310;2023-04-24T14:04:13;11.10;99.90
14053;DHT22;7101;51.600;7.310;2023-04-24T14:06:42;11.30;99.90
14053;DHT22;7101;51.600;7.310;2023-04-24T14:09:09;11.60;99.90
14053;DHT22;7101;51.600;7.310;2023-04-24T14:11:36;11.60;99.90
14053;DHT22;7101;51.600;7.310;2023-04-24T14:14:03;11.70;99.90
14053;DHT22;7101;51.600;7.310;2023-04-24T14:16:30;11.70;99.90
14053;DHT22;7101;51.600;7.310;2023-04-24T14:19:00;11.60;99.90
14053;DHT22;7101;51.600;7.310;2023-04-24T14:21:27;11.60;99.90
14053;DHT22;7101;51.600;7.310;2023-04-24T14:23:56;11.50;99.90
14053;DHT22;7101;51.600;7.310;2023-04-24T14:26:23;11.50;99.90
14053;DHT22;7101;51.600;7.310;2023-04-24T14:28:50;11.70;99.90
14053;DHT22;7101;51.600;7.310;2023-04-24T14:31:18;12.00;99.90
14053;DHT22;7101;51.600;7.310;2023-04-24T14:33:45;12.20;99.90
14053;DHT22;7101;51.600;7.310;2023-04-24T14:36:12;12.00;99.90
14053;DHT22;7101;51.600;7.310;2023-04-24T14:38:39;11.90;99.90
14053;DHT22;7101;51.600;7.310;2023-04-24T14:41:08;11.80;99.90
14053;DHT22;7101;51.600;7.310;2023-04-24T14:43:37;11.60;99.90
14053;DHT22;7101;51.600;7.310;2023-04-24T14:46:04;11.20;99.90
14053;DHT22;7101;51.600;7.310;2023-04-24T14:48:31;11.00;99.90
14053;DHT22;7101;51.600;7.310;2023-04-24T14:50:58;11.00;99.90
14053;DHT22;7101;51.600;7.310;2023-04-24T14:53:25;10.90;99.90
14053;DHT22;7101;51.600;7.310;2023-04-24T14:55:52;10.70;99.90
14053;DHT22;7101;51.600;7.310;2023-04-24T14:58:21;10.40;99.90
14053;DHT22;7101;51.600;7.310;2023-04-24T15:00:48;10.10;99.90
14053;DHT22;7101;51.600;7.310;2023-04-24T15:03:18;9.90;99.90
14053;DHT22;7101;51.600;7.310;2023-04-24T15:05:45;9.80;99.90
14053;DHT22;7101;51.600;7.310;2023-04-24T15:08:12;9.80;99.90
14053;DHT22;7101;51.600;7.310;2023-04-24T15:10:39;10.00;99.90
14053;DHT22;7101;51.600;7.310;2023-04-24T15:13:07;10.30;99.90
14053;DHT22;7101;51.600;7.310;2023-04-24T15:15:35;10.50;99.90
14053;DHT22;7101;51.600;7.310;2023-04-24T15:18:03;10.60;99.90
14053;DHT22;7101;51.600;7.310;2023-04-24T15:20:30;10.60;99.90
14053;DHT22;7101;51.600;7.310;2023-04-24T15:22:57;10.60;99.90
14053;DHT22;7101;51.600;7.310;2023-04-24T15:25:26;10.40;99.90
14053;DHT22;7101;51.600;7.310;2023-04-24T15:27:53;10.50;99.90
14053;DHT22;7101;51.600;7.310;2023-04-24T15:30:20;10.60;99.90
14053;DHT22;7101;51.600;7.310;2023-04-24T15:32:48;11.00;99.90
14053;DHT22;7101;51.600;7.310;2023-04-24T15:35:15;11.20;99.90
14053;DHT22;7101;51.600;7.310;2023-04-24T15:37:44;11.50;99.90
14053;DHT22;7101;51.600;7.310;2023-04-24T15:40:11;11.50;99.90
14053;DHT22;7101;51.600;7.310;2023-04-24T15:42:42;11.50;99.90
14053;DHT22;7101;51.600;7.310;2023-04-24T15:45:11;11.60;99.90
14053;DHT22;7101;51.600;7.310;2023-04-24T15:47:38;11.30;99.90
14053;DHT22;7101;51.600;7.310;2023-04-24T15:50:08;10.90;99.90
14053;DHT22;7101;51.600;7.310;2023-04-24T15:52:35;10.70;99.90
14053;DHT22;7101;51.600;7.310;2023-04-24T15:55:03;10.70;99.90
14053;DHT22;7101;51.600;7.310;2023-04-24T15:57:30;10.60;99.90
14053;DHT22;7101;51.600;7.310;2023-04-24T15:59:57;10.40;99.90
14053;DHT22;7101;51.600;7.310;2023-04-24T16:02:25;10.30;99.90